Time;durP1;ratioP1;P1;durP2;ratioP2;P2;SDS_P1;SDS_P2;PMS_P1;PMS_P2;Temp;Humidity;BMP_temperature;BMP_pressure;BME280_temperature;BME280_humidity;BME280_pressure;Samples;Min_cycle;Max_cycle;Signal;HPM_P1;HPM_P2
2022/08/02 00:00:19;;;;;;;11.43;6.70;;;;;;;17.66;63.04;101253.13;847201;23;1111;-86
2022/08/02 00:00:40;;;;;;;11.90;6.70;;;;;;;17.61;63.21;101245.19;851238;23;1212;-86
2022/08/02 00:01:04;;;;;;;11.50;7.00;;;;;;;17.64;63.38;101254.88;847382;23;1185;-87
2022/08/02 00:01:25;;;;;;;8.95;6.80;;;;;;;17.60;63.39;101247.78;851571;23;1382;-86
2022/08/02 00:01:46;;;;;;;7.82;6.50;;;;;;;17.63;63.32;101247.81;858821;23;1253;-86
2022/08/02 00:02:07;;;;;;;8.15;6.63;;;;;;;17.61;63.36;101249.56;847369;23;1357;-86
2022/08/02 00:02:28;;;;;;;8.02;6.68;;;;;;;17.67;63.42;101260.16;847740;23;1243;-87
2022/08/02 00:02:48;;;;;;;9.03;6.70;;;;;;;17.62;63.55;101248.69;861552;23;912;-86
2022/08/02 00:03:09;;;;;;;8.18;6.45;;;;;;;17.65;63.40;101259.28;850986;23;1153;-86
2022/08/02 00:03:30;;;;;;;9.15;7.00;;;;;;;17.62;63.37;101254.84;847975;23;1183;-87
2022/08/02 00:03:51;;;;;;;9.35;7.10;;;;;;;17.64;63.37;101254.88;847406;23;1214;-87
2022/08/02 00:04:14;;;;;;;9.15;7.20;;;;;;;17.63;63.58;101258.34;847720;23;1223;-86
2022/08/02 00:04:35;;;;;;;8.88;6.60;;;;;;;17.58;63.28;101254.81;852139;23;1293;-86
2022/08/02 00:04:56;;;;;;;8.07;6.55;;;;;;;17.57;63.58;101253.94;847240;23;1473;-86
2022/08/02 00:05:17;;;;;;;7.68;6.25;;;;;;;17.59;63.52;101251.31;851485;23;1247;-86
2022/08/02 00:05:38;;;;;;;8.38;6.65;;;;;;;17.59;63.55;101256.59;847747;23;1190;-86
2022/08/02 00:05:58;;;;;;;9.85;6.75;;;;;;;17.59;63.44;101257.50;847477;23;1228;-86
2022/08/02 00:06:19;;;;;;;10.53;7.20;;;;;;;17.54;63.37;101249.50;851561;23;1305;-86
2022/08/02 00:06:40;;;;;;;9.93;7.03;;;;;;;17.59;63.61;101256.59;860062;23;1248;-86
2022/08/02 00:07:01;;;;;;;9.90;7.35;;;;;;;17.51;63.52;101249.50;852811;23;1134;-85
2022/08/02 00:07:22;;;;;;;9.85;7.10;;;;;;;17.53;63.42;101253.03;851341;23;1231;-86
2022/08/02 00:07:43;;;;;;;9.95;7.30;;;;;;;17.53;63.43;101253.03;851757;23;1220;-87
2022/08/02 00:08:04;;;;;;;8.73;6.80;;;;;;;17.49;63.44;101245.97;847411;23;1543;-86
2022/08/02 00:08:25;;;;;;;9.75;6.82;;;;;;;17.48;63.38;101245.97;851546;23;1240;-86
2022/08/02 00:08:45;;;;;;;8.13;6.38;;;;;;;17.54;63.38;101256.56;855908;23;1221;-87
2022/08/02 00:09:06;;;;;;;7.88;6.78;;;;;;;17.48;63.42;101260.06;852106;23;1298;-86
2022/08/02 00:09:27;;;;;;;7.60;6.80;;;;;;;17.52;63.31;101259.19;847329;23;1188;-86
2022/08/02 00:09:49;;;;;;;8.80;7.10;;;;;;;17.49;63.32;101253.91;848908;23;937;-86
2022/08/02 00:10:11;;;;;;;8.98;7.20;;;;;;;17.43;63.36;101245.03;847786;23;1228;-86
2022/08/02 00:10:32;;;;;;;8.50;7.40;;;;;;;17.42;63.32;101260.00;843766;23;1241;-87
2022/08/02 00:10:53;;;;;;;8.67;7.10;;;;;;;17.44;63.51;101254.75;848586;23;1044;-86
2022/08/02 00:11:14;;;;;;;10.38;7.50;;;;;;;17.41;63.55;101252.97;843371;23;1495;-86
2022/08/02 00:11:53;;;;;;;12.77;7.70;;;;;;;17.44;63.49;101260.88;847433;23;1281;-86
2022/08/02 00:12:14;;;;;;;12.20;7.60;;;;;;;17.38;63.48;101247.63;851574;23;1147;-87
2022/08/02 00:12:35;;;;;;;9.13;7.18;;;;;;;17.36;63.37;101252.94;853377;23;790;-86
2022/08/02 00:12:56;;;;;;;8.98;7.28;;;;;;;17.37;63.42;101248.53;851410;23;1268;-87
2022/08/02 00:13:17;;;;;;;9.40;7.57;;;;;;;17.38;63.62;101252.91;843115;23;1269;-86
2022/08/02 00:13:38;;;;;;;10.13;7.72;;;;;;;17.31;63.53;101251.09;857199;23;1151;-86
2022/08/02 00:13:58;;;;;;;9.03;7.40;;;;;;;17.29;63.34;101251.13;853118;23;766;-86
2022/08/02 00:14:19;;;;;;;9.95;7.38;;;;;;;17.32;63.54;101255.53;847441;23;1335;-86
2022/08/02 00:14:40;;;;;;;8.63;7.38;;;;;;;17.34;63.57;101259.06;847931;23;1333;-87
2022/08/02 00:15:01;;;;;;;8.90;7.50;;;;;;;17.26;63.36;101249.31;839432;23;1907;-86
2022/08/02 00:15:22;;;;;;;8.30;7.40;;;;;;;17.27;63.61;101255.47;844710;23;1158;-86
2022/08/02 00:15:42;;;;;;;9.20;7.43;;;;;;;17.31;63.53;101253.75;841088;23;1180;-86
2022/08/02 00:16:03;;;;;;;10.70;7.30;;;;;;;17.28;63.67;101259.00;848610;23;1277;-86
2022/08/02 00:16:24;;;;;;;11.40;7.53;;;;;;;17.24;63.65;101248.44;851247;23;1302;-86
2022/08/02 00:16:45;;;;;;;10.68;7.55;;;;;;;17.24;63.60;101245.81;856006;23;1324;-86
2022/08/02 00:17:06;;;;;;;9.18;7.75;;;;;;;17.27;63.64;101255.47;855508;23;1277;-86
2022/08/02 00:17:27;;;;;;;8.60;7.65;;;;;;;17.24;63.60;101248.44;843523;23;1142;-87
2022/08/02 00:17:48;;;;;;;9.48;7.80;;;;;;;17.24;63.62;101256.34;851160;23;1053;-86
2022/08/02 00:18:09;;;;;;;11.57;7.88;;;;;;;17.24;63.75;101256.34;850876;23;1311;-86
2022/08/02 00:18:30;;;;;;;15.07;7.82;;;;;;;17.25;63.84;101263.41;847556;23;1207;-86
2022/08/02 00:18:51;;;;;;;14.52;7.93;;;;;;;17.18;63.81;101244.81;851607;23;1245;-86
2022/08/02 00:19:11;;;;;;;13.93;8.20;;;;;;;17.20;63.83;101254.50;851619;23;1159;-87
2022/08/02 00:19:33;;;;;;;11.18;8.30;;;;;;;17.21;63.83;101263.31;847070;23;1247;-86
2022/08/02 00:19:54;;;;;;;11.00;8.27;;;;;;;17.21;63.83;101260.69;851290;23;1314;-86
2022/08/02 00:20:15;;;;;;;8.70;7.80;;;;;;;17.21;63.74;101256.31;851806;23;1231;-87
2022/08/02 00:20:36;;;;;;;8.18;7.38;;;;;;;17.20;63.88;101254.50;847764;23;1199;-86
2022/08/02 00:20:56;;;;;;;8.02;7.22;;;;;;;17.19;63.82;101260.66;847260;23;1342;-86
2022/08/02 00:21:17;;;;;;;8.85;7.25;;;;;;;17.15;63.91;101250.94;851661;23;1193;-86
2022/08/02 00:21:38;;;;;;;8.97;7.63;;;;;;;17.17;63.87;101265.06;851716;23;1119;-86
2022/08/02 00:21:59;;;;;;;10.23;7.97;;;;;;;17.13;63.93;101257.97;855717;23;1383;-86
2022/08/02 00:22:19;;;;;;;10.70;7.97;;;;;;;17.13;63.74;101263.25;847452;23;1189;-85
2022/08/02 00:22:40;;;;;;;11.20;7.80;;;;;;;17.11;63.89;101254.44;847661;23;1433;-86
2022/08/02 00:23:01;;;;;;;11.15;7.70;;;;;;;17.15;63.94;101266.78;855310;23;1236;-87
2022/08/02 00:23:22;;;;;;;11.25;8.38;;;;;;;17.11;63.82;101257.94;855877;23;1250;-86
2022/08/02 00:23:42;;;;;;;11.33;8.40;;;;;;;17.11;64.09;101265.84;855994;23;1177;-86
2022/08/02 00:24:04;;;;;;;9.70;8.10;;;;;;;17.15;64.06;101273.81;848710;23;972;-85
2022/08/02 00:24:24;;;;;;;9.05;7.53;;;;;;;17.09;63.94;101264.09;847602;23;1319;-86
2022/08/02 00:24:45;;;;;;;8.75;7.55;;;;;;;17.10;63.94;101263.22;848989;23;1118;-87
2022/08/02 00:25:06;;;;;;;8.55;7.68;;;;;;;17.10;64.02;101269.38;847151;23;1185;-86
2022/08/02 00:25:30;;;;;;;8.40;7.60;;;;;;;17.07;64.00;101269.34;843215;23;1219;-87
2022/08/02 00:25:51;;;;;;;8.57;7.68;;;;;;;17.07;64.07;101263.19;843349;23;1247;-86
2022/08/02 00:26:12;;;;;;;8.97;7.93;;;;;;;17.07;64.15;101269.34;854785;23;1379;-87
2022/08/02 00:26:32;;;;;;;9.27;8.00;;;;;;;17.08;64.01;101273.75;843586;23;1268;-86
2022/08/02 00:26:53;;;;;;;9.02;7.85;;;;;;;17.05;63.95;101270.19;851596;23;1296;-87
2022/08/02 00:27:13;;;;;;;10.38;8.10;;;;;;;17.04;64.07;101271.06;855912;23;1134;-87
2022/08/02 00:27:34;;;;;;;11.70;8.47;;;;;;;17.02;64.03;101271.06;847459;23;1210;-86
2022/08/02 00:27:55;;;;;;;11.55;8.45;;;;;;;17.04;64.11;101276.34;851325;23;1350;-87
2022/08/02 00:28:16;;;;;;;11.60;8.45;;;;;;;17.05;64.14;101275.47;855765;23;1387;-86
2022/08/02 00:28:37;;;;;;;10.88;8.23;;;;;;;17.03;63.93;101271.94;851609;23;1265;-86
2022/08/02 00:28:57;;;;;;;12.50;8.60;;;;;;;16.98;64.07;101270.13;847299;23;1197;-86
2022/08/02 00:29:18;;;;;;;11.93;8.38;;;;;;;17.02;64.01;101278.97;851321;23;1152;-86
2022/08/02 00:29:39;;;;;;;11.50;8.33;;;;;;;17.01;63.94;101278.97;850897;23;1138;-86
2022/08/02 00:30:00;;;;;;;10.52;8.20;;;;;;;16.99;64.35;101277.19;843040;23;1442;-87
2022/08/02 00:30:21;;;;;;;10.38;8.13;;;;;;;16.97;64.20;101271.00;848861;23;1024;-87
2022/08/02 00:30:44;;;;;;;10.10;7.93;;;;;;;16.98;64.15;101275.41;847750;23;1278;-86
2022/08/02 00:31:05;;;;;;;8.65;7.68;;;;;;;16.99;64.37;101277.19;847189;23;1539;-86
2022/08/02 00:31:25;;;;;;;9.00;7.60;;;;;;;16.99;64.33;101282.44;849365;23;1049;-86
2022/08/02 00:31:46;;;;;;;9.20;7.93;;;;;;;16.94;64.37;101265.72;853420;23;1250;-87
2022/08/02 00:32:07;;;;;;;10.50;8.45;;;;;;;16.96;64.33;101276.28;847250;23;1483;-86
2022/08/02 00:32:28;;;;;;;11.00;8.67;;;;;;;16.97;64.38;101284.19;847460;23;1172;-87
2022/08/02 00:32:48;;;;;;;10.60;8.32;;;;;;;17.01;64.24;101276.34;855832;23;1176;-87
2022/08/02 00:33:09;;;;;;;8.50;7.65;;;;;;;17.06;64.47;101282.50;846941;23;1297;-87
2022/08/02 00:33:30;;;;;;;8.52;7.72;;;;;;;17.03;64.54;101275.44;842665;23;1184;-87
2022/08/02 00:33:51;;;;;;;9.23;8.23;;;;;;;17.04;64.51;101276.34;855826;23;1168;-86
2022/08/02 00:34:12;;;;;;;10.40;8.40;;;;;;;17.05;64.63;101286.03;847730;23;1189;-86
2022/08/02 00:34:32;;;;;;;11.95;8.00;;;;;;;17.06;64.53;101279.88;843569;23;1318;-86
2022/08/02 00:34:53;;;;;;;11.38;7.90;;;;;;;17.02;64.58;101272.81;843438;23;1305;-86
2022/08/02 00:35:14;;;;;;;11.45;7.97;;;;;;;17.03;64.66;101279.88;853170;23;1909;-86
2022/08/02 00:35:35;;;;;;;12.23;7.88;;;;;;;17.07;64.61;101282.53;847761;23;1204;-86
2022/08/02 00:35:56;;;;;;;11.27;7.32;;;;;;;17.07;64.73;101284.28;855421;23;1391;-86
2022/08/02 00:36:17;;;;;;;10.77;7.30;;;;;;;17.06;64.61;101277.25;851106;23;1224;-86
2022/08/02 00:36:38;;;;;;;8.68;7.47;;;;;;;17.09;64.73;101282.56;851522;23;1244;-86
2022/08/02 00:36:59;;;;;;;9.40;7.80;;;;;;;17.07;64.63;101284.28;855463;23;1211;-86
2022/08/02 00:37:20;;;;;;;8.57;7.50;;;;;;;17.09;64.74;101282.56;851761;23;1636;-86
2022/08/02 00:37:44;;;;;;;8.40;7.50;;;;;;;17.10;64.64;101287.81;847785;23;1254;-86
2022/08/02 00:38:05;;;;;;;8.20;7.05;;;;;;;17.03;64.56;101275.44;851503;23;1392;-86
2022/08/02 00:38:26;;;;;;;9.55;7.13;;;;;;;17.05;64.51;101286.91;847817;23;1192;-86
2022/08/02 00:38:49;;;;;;;9.70;6.65;;;;;;;17.02;64.55;101278.09;851959;23;1251;-86
2022/08/02 00:39:10;;;;;;;9.25;6.90;;;;;;;17.02;64.44;101275.47;847454;23;1252;-86
2022/08/02 00:39:31;;;;;;;7.68;6.82;;;;;;;17.04;64.58;101279.00;840500;23;1077;-86
2022/08/02 00:39:51;;;;;;;9.25;7.22;;;;;;;17.06;64.52;101282.50;852661;23;1188;-86
2022/08/02 00:40:13;;;;;;;9.60;7.30;;;;;;;17.03;64.53;101282.50;855929;23;1223;-86
2022/08/02 00:40:34;;;;;;;8.80;7.20;;;;;;;17.02;64.51;101275.47;851809;23;1203;-86
2022/08/02 00:40:54;;;;;;;7.80;7.00;;;;;;;17.02;64.53;101275.47;847261;23;1323;-85
2022/08/02 00:41:18;;;;;;;7.93;7.13;;;;;;;17.01;64.44;101278.97;851646;23;1216;-86
2022/08/02 00:41:47;;;;;;;8.77;7.53;;;;;;;17.02;64.59;101278.97;851872;23;1204;-86
2022/08/02 00:42:08;;;;;;;9.45;7.70;;;;;;;17.05;64.51;101275.47;843212;23;1275;-86
2022/08/02 00:42:28;;;;;;;10.13;7.85;;;;;;;17.02;64.68;101264.91;855648;23;1112;-85
2022/08/02 00:43:05;;;;;;;8.90;7.70;;;;;;;17.09;64.71;101274.66;859862;23;1179;-86
2022/08/02 00:43:26;;;;;;;9.63;7.75;;;;;;;17.06;64.84;101275.50;851689;23;1322;-86
2022/08/02 00:43:49;;;;;;;10.10;7.87;;;;;;;17.09;64.82;101277.28;847726;23;1334;-86
2022/08/02 00:44:11;;;;;;;10.57;7.68;;;;;;;17.09;64.96;101272.00;855368;23;1322;-86
2022/08/02 00:44:32;;;;;;;11.48;7.78;;;;;;;17.12;64.60;101269.41;847739;23;1327;-86
2022/08/02 00:44:53;;;;;;;10.50;7.53;;;;;;;17.12;65.02;101280.84;843550;23;1290;-86
2022/08/02 00:45:14;;;;;;;8.80;7.50;;;;;;;17.09;64.65;101267.59;843607;23;1219;-86
2022/08/02 00:45:36;;;;;;;8.10;7.30;;;;;;;17.13;64.85;101274.69;850671;23;1332;-86
2022/08/02 00:45:57;;;;;;;8.50;7.60;;;;;;;17.06;64.83;101264.06;854545;23;1172;-86
2022/08/02 00:46:19;;;;;;;8.73;7.82;;;;;;;17.11;64.65;101281.69;846735;23;1240;-85
2022/08/02 00:46:40;;;;;;;9.82;7.75;;;;;;;17.11;64.74;101284.31;843179;23;1353;-86
2022/08/02 00:47:01;;;;;;;10.95;7.28;;;;;;;17.05;64.57;101270.19;847508;23;1274;-86
2022/08/02 00:47:24;;;;;;;12.90;7.20;;;;;;;17.06;64.66;101274.59;855294;23;1250;-86
2022/08/02 00:47:45;;;;;;;11.43;7.30;;;;;;;17.06;64.60;101272.88;853134;23;1134;-86
2022/08/02 00:48:07;;;;;;;11.20;7.73;;;;;;;17.03;64.68;101278.09;843365;23;1271;-86
2022/08/02 00:48:29;;;;;;;9.85;7.70;;;;;;;17.01;64.51;101271.06;843373;23;1243;-86
2022/08/02 00:48:50;;;;;;;10.25;7.88;;;;;;;17.01;64.67;101271.06;847558;23;1295;-86
2022/08/02 00:49:12;;;;;;;8.00;7.20;;;;;;;16.97;64.61;101263.09;847353;23;1203;-85
2022/08/02 00:49:32;;;;;;;7.60;6.90;;;;;;;16.99;64.59;101277.19;855533;23;1352;-86
2022/08/02 00:49:53;;;;;;;7.80;7.10;;;;;;;17.01;64.52;101271.06;851439;23;1306;-86
2022/08/02 00:50:14;;;;;;;10.27;7.60;;;;;;;17.01;64.66;101273.69;851474;23;1386;-86
2022/08/02 00:50:36;;;;;;;10.00;7.60;;;;;;;16.99;64.61;101273.69;851725;23;1215;-85
2022/08/02 00:50:57;;;;;;;10.93;7.75;;;;;;;16.92;64.55;101272.75;856926;23;1008;-86
2022/08/02 00:51:17;;;;;;;8.88;7.60;;;;;;;16.93;64.71;101263.97;853113;23;1056;-86
2022/08/02 00:51:39;;;;;;;11.47;8.10;;;;;;;16.99;64.53;101282.44;851810;23;1230;-85
2022/08/02 00:52:00;;;;;;;11.63;8.25;;;;;;;16.86;64.64;101254.22;855684;23;1283;-86
2022/08/02 00:52:25;;;;;;;11.02;8.45;;;;;;;16.96;64.74;101276.28;859846;23;1340;-86
2022/08/02 00:52:45;;;;;;;9.77;7.85;;;;;;;16.95;64.64;101271.88;847547;23;1286;-86
2022/08/02 00:53:10;;;;;;;8.90;7.60;;;;;;;16.97;64.69;101280.69;856461;23;1132;-85
2022/08/02 00:53:32;;;;;;;9.82;7.80;;;;;;;16.90;64.63;101261.28;856015;23;1199;-86
2022/08/02 00:53:52;;;;;;;9.35;7.80;;;;;;;16.92;64.91;101264.84;851426;23;1226;-86
2022/08/02 00:54:13;;;;;;;9.35;8.05;;;;;;;16.88;64.95;101263.03;857022;23;1023;-86
2022/08/02 00:54:34;;;;;;;8.65;7.80;;;;;;;16.91;64.65;101260.41;857509;23;829;-86
2022/08/02 00:54:55;;;;;;;8.80;7.90;;;;;;;16.91;65.06;101263.03;851043;23;1242;-85
2022/08/02 00:55:16;;;;;;;10.47;7.90;;;;;;;16.87;64.84;101261.25;851052;23;1910;-85
2022/08/02 00:55:38;;;;;;;11.60;7.83;;;;;;;16.84;64.98;101250.69;847987;23;1271;-85
2022/08/02 00:55:59;;;;;;;12.68;8.45;;;;;;;16.84;64.71;101255.97;847398;23;1313;-86
2022/08/02 00:56:20;;;;;;;10.70;8.25;;;;;;;16.86;64.77;101251.59;855790;23;1379;-86
2022/08/02 00:56:41;;;;;;;9.93;7.75;;;;;;;16.93;64.80;101265.69;847595;23;1236;-86
2022/08/02 00:57:02;;;;;;;8.80;7.20;;;;;;;16.82;64.75;101248.03;851135;23;1335;-86
2022/08/02 00:57:23;;;;;;;9.70;7.15;;;;;;;16.86;64.96;101248.94;847235;23;1231;-86
2022/08/02 00:57:44;;;;;;;10.45;7.70;;;;;;;16.83;64.55;101249.81;849170;23;929;-86
2022/08/02 00:58:05;;;;;;;10.30;7.90;;;;;;;16.84;64.79;101253.34;847350;23;1219;-86
2022/08/02 00:58:26;;;;;;;9.57;7.88;;;;;;;16.82;64.62;101241.88;853473;23;822;-86
2022/08/02 00:58:47;;;;;;;8.48;7.70;;;;;;;16.91;64.63;101257.75;851527;23;1453;-86
2022/08/02 00:59:07;;;;;;;8.60;7.65;;;;;;;16.81;64.57;101250.66;847061;23;1243;-86
2022/08/02 00:59:28;;;;;;;10.57;8.07;;;;;;;16.91;64.73;101268.31;847221;23;1173;-85
2022/08/02 00:59:49;;;;;;;12.18;8.18;;;;;;;16.86;64.65;101259.50;852563;23;1071;-86
2022/08/02 01:00:10;;;;;;;10.88;8.18;;;;;;;16.83;64.60;101254.19;851584;23;1294;-86
2022/08/02 01:00:34;;;;;;;10.82;8.43;;;;;;;16.88;64.55;101263.03;859737;23;1462;-85
2022/08/02 01:00:56;;;;;;;10.25;8.70;;;;;;;16.82;64.56;101247.16;859299;23;1375;-86
2022/08/02 01:01:17;;;;;;;12.60;9.10;;;;;;;16.86;64.62;101264.78;850863;23;1250;-86
2022/08/02 01:01:37;;;;;;;11.20;8.60;;;;;;;16.82;64.57;101257.69;847789;23;1240;-86
2022/08/02 01:01:58;;;;;;;9.98;8.25;;;;;;;16.81;64.57;101255.94;847079;23;1317;-86
2022/08/02 01:02:19;;;;;;;9.93;7.97;;;;;;;16.77;64.47;101255.00;855263;23;1225;-86
2022/08/02 01:02:40;;;;;;;10.80;8.10;;;;;;;16.84;64.59;101266.50;851877;23;1461;-86
2022/08/02 01:03:01;;;;;;;11.57;8.20;;;;;;;16.78;64.74;101254.13;855482;23;1364;-85
2022/08/02 01:03:25;;;;;;;9.68;7.97;;;;;;;16.82;64.48;101262.97;855768;23;1258;-86
2022/08/02 01:03:47;;;;;;;8.90;8.00;;;;;;;16.76;64.69;101260.25;855981;23;1391;-86
2022/08/02 01:04:12;;;;;;;8.93;8.02;;;;;;;16.81;64.54;101263.84;847346;23;1360;-86
2022/08/02 01:04:33;;;;;;;8.80;7.90;;;;;;;16.78;64.71;101266.44;852070;23;1191;-86
2022/08/02 01:04:54;;;;;;;8.83;7.93;;;;;;;16.79;64.66;101257.66;851541;23;1269;-86
2022/08/02 01:05:15;;;;;;;9.43;7.95;;;;;;;16.83;64.84;101267.34;851397;23;1269;-86
2022/08/02 01:05:36;;;;;;;11.00;8.35;;;;;;;16.79;64.88;101268.22;852116;23;1241;-86
2022/08/02 01:05:59;;;;;;;11.15;8.40;;;;;;;16.77;64.79;101260.28;850897;23;1337;-86
2022/08/02 01:06:20;;;;;;;10.65;8.40;;;;;;;16.75;64.87;101256.75;843375;23;1250;-86
2022/08/02 01:06:42;;;;;;;9.60;8.00;;;;;;;16.78;64.78;101262.03;850655;23;1318;-86
2022/08/02 01:07:04;;;;;;;10.00;7.80;;;;;;;16.76;64.67;101257.63;846966;23;1265;-86
2022/08/02 01:07:43;;;;;;;9.70;7.78;;;;;;;16.78;64.99;101266.44;847736;23;1349;-86
2022/08/02 01:08:04;;;;;;;9.90;8.38;;;;;;;16.69;64.85;101252.31;855317;23;1315;-86
2022/08/02 01:08:24;;;;;;;10.13;8.32;;;;;;;16.74;64.82;101264.63;855751;23;1279;-86
2022/08/02 01:08:45;;;;;;;10.05;8.15;;;;;;;16.72;64.84;101260.22;847438;23;1211;-86
2022/08/02 01:09:07;;;;;;;9.68;8.00;;;;;;;16.71;64.84;101254.94;848015;23;1213;-87
2022/08/02 01:09:27;;;;;;;9.88;7.97;;;;;;;16.75;65.05;101271.66;844754;23;789;-85
2022/08/02 01:09:49;;;;;;;13.60;8.40;;;;;;;16.71;64.88;101258.47;844387;23;1367;-86
2022/08/02 01:10:10;;;;;;;12.45;8.13;;;;;;;16.74;65.14;101264.63;843284;23;1348;-86
2022/08/02 01:10:32;;;;;;;11.80;8.40;;;;;;;16.72;65.03;101265.50;847551;23;1221;-86
2022/08/02 01:10:53;;;;;;;9.77;8.50;;;;;;;16.70;64.80;101261.97;851415;23;1278;-86
2022/08/02 01:11:14;;;;;;;10.40;8.60;;;;;;;16.71;64.96;101260.22;847595;23;1351;-86
2022/08/02 01:11:35;;;;;;;9.15;8.20;;;;;;;16.77;64.98;101275.22;847901;23;1295;-85
2022/08/02 01:11:56;;;;;;;9.82;8.38;;;;;;;16.75;64.95;101271.66;851658;23;1087;-85
2022/08/02 01:12:17;;;;;;;10.80;8.30;;;;;;;16.71;65.03;101271.66;851919;23;1326;-86
2022/08/02 01:12:38;;;;;;;12.15;8.07;;;;;;;16.75;64.95;101271.66;859561;23;1258;-86
2022/08/02 01:12:59;;;;;;;11.48;8.00;;;;;;;16.71;65.22;101262.84;859868;23;1280;-86
2022/08/02 01:13:20;;;;;;;10.35;7.72;;;;;;;16.75;64.61;101267.28;855683;23;1259;-86
2022/08/02 01:13:41;;;;;;;10.20;7.90;;;;;;;16.74;65.19;101269.91;851946;23;1202;-86
2022/08/02 01:14:09;;;;;;;10.07;7.90;;;;;;;16.72;64.99;101267.28;851667;23;1374;-86
2022/08/02 01:14:30;;;;;;;9.70;8.35;;;;;;;16.74;65.11;101272.53;843834;23;1254;-86
2022/08/02 01:15:10;;;;;;;8.90;7.97;;;;;;;16.72;64.89;101265.50;851880;23;1376;-86
2022/08/02 01:15:37;;;;;;;8.52;7.63;;;;;;;16.73;65.49;101271.69;847781;23;1359;-85
2022/08/02 01:16:08;;;;;;;9.00;8.10;;;;;;;16.78;65.10;101271.72;843764;23;1246;-86
2022/08/02 01:16:32;;;;;;;8.75;7.85;;;;;;;16.73;65.13;101269.03;851724;23;1199;-86
2022/08/02 01:17:07;;;;;;;9.20;7.47;;;;;;;16.77;65.27;101280.50;856056;23;1281;-86
2022/08/02 01:17:33;;;;;;;10.27;7.55;;;;;;;16.78;65.32;101275.22;857918;23;888;-86
2022/08/02 01:18:06;;;;;;;10.15;7.70;;;;;;;16.78;65.13;101272.59;856150;23;1639;-86
2022/08/02 01:18:35;;;;;;;9.20;7.80;;;;;;;16.76;65.24;101268.16;860717;23;1252;-86
2022/08/02 01:19:01;;;;;;;9.30;7.80;;;;;;;16.74;65.24;101270.81;848040;23;1265;-86
2022/08/02 01:19:36;;;;;;;9.30;7.50;;;;;;;16.79;65.14;101279.63;852232;23;1318;-86
2022/08/02 01:20:16;;;;;;;10.75;7.60;;;;;;;16.80;65.16;101276.16;851808;23;1035;-86
2022/08/02 01:20:55;;;;;;;9.35;7.95;;;;;;;16.78;65.20;101271.72;852091;23;1425;-86
2022/08/02 01:21:37;;;;;;;10.50;7.80;;;;;;;16.80;65.30;101275.25;851793;23;1388;-86
2022/08/02 01:22:13;;;;;;;9.63;7.25;;;;;;;16.83;65.29;101270.00;852250;23;1236;-86
2022/08/02 01:22:43;;;;;;;8.50;7.22;;;;;;;16.81;65.25;101261.19;852078;23;1208;-85
2022/08/02 01:23:44;;;;;;;9.70;8.00;;;;;;;16.86;65.38;101264.78;845350;23;1045;-85
2022/08/02 01:24:07;;;;;;;9.30;8.27;;;;;;;16.88;65.39;101263.03;849405;23;1107;-84
2022/08/02 01:24:40;;;;;;;10.30;8.15;;;;;;;16.91;65.54;101270.09;851820;23;1427;-84
2022/08/02 01:25:28;;;;;;;9.63;7.40;;;;;;;16.90;65.54;101271.81;847258;23;1219;-86
2022/08/02 01:26:13;;;;;;;9.18;7.78;;;;;;;16.92;65.67;101270.13;842614;23;1139;-85
2022/08/02 01:27:05;;;;;;;8.98;7.90;;;;;;;16.92;65.56;101269.22;857635;23;817;-86
2022/08/02 01:27:35;;;;;;;9.75;7.60;;;;;;;16.92;65.51;101270.13;847076;23;1289;-85
2022/08/02 01:28:21;;;;;;;10.13;7.22;;;;;;;16.92;65.61;101270.13;848836;23;950;-85
2022/08/02 01:28:46;;;;;;;9.02;7.18;;;;;;;16.90;65.54;101266.56;835067;23;1322;-86
2022/08/02 01:29:20;;;;;;;8.90;6.95;;;;;;;16.91;65.41;101273.59;838982;23;1327;-86
2022/08/02 01:29:44;;;;;;;7.90;6.80;;;;;;;16.83;65.58;101264.72;841200;23;1269;-86
2022/08/02 01:30:06;;;;;;;7.65;6.88;;;;;;;16.86;65.48;101270.03;851317;23;1214;-86
2022/08/02 01:30:33;;;;;;;10.30;6.90;;;;;;;16.89;65.49;101275.34;851438;23;1341;-85
2022/08/02 01:31:17;;;;;;;10.67;7.10;;;;;;;16.86;65.45;101267.41;855561;23;1069;-86
2022/08/02 01:31:59;;;;;;;9.05;7.45;;;;;;;16.86;65.45;101270.03;851527;23;1241;-85
2022/08/02 01:32:28;;;;;;;8.40;7.50;;;;;;;16.82;65.35;101265.59;851531;23;1196;-86
2022/08/02 01:32:54;;;;;;;9.68;7.57;;;;;;;16.81;65.77;101267.38;851709;23;1188;-86
2022/08/02 01:33:18;;;;;;;9.30;7.30;;;;;;;16.78;65.49;101261.19;851421;23;1183;-85
2022/08/02 01:33:51;;;;;;;9.05;6.88;;;;;;;16.79;65.38;101258.53;843484;23;1211;-86
2022/08/02 01:34:44;;;;;;;10.60;7.00;;;;;;;16.76;65.46;101255.88;847362;23;1095;-86
2022/08/02 01:35:10;;;;;;;7.63;6.93;;;;;;;16.80;65.28;101260.34;846936;23;1909;-86
2022/08/02 01:35:40;;;;;;;7.93;7.00;;;;;;;16.78;65.49;101255.91;857349;23;852;-86
2022/08/02 01:36:03;;;;;;;9.13;7.40;;;;;;;16.79;65.34;101263.81;850450;23;1304;-86
2022/08/02 01:36:26;;;;;;;8.20;6.90;;;;;;;16.82;65.44;101255.06;855518;23;1294;-86
2022/08/02 01:36:53;;;;;;;7.35;6.55;;;;;;;16.79;65.31;101257.66;853073;23;1460;-86
2022/08/02 01:37:49;;;;;;;7.47;6.70;;;;;;;16.81;65.38;101263.84;851155;23;1277;-86
2022/08/02 01:38:21;;;;;;;7.80;7.00;;;;;;;16.76;65.32;101253.25;844516;23;1226;-86
2022/08/02 01:38:46;;;;;;;8.40;7.50;;;;;;;16.78;65.47;101263.81;835664;23;1331;-86
2022/08/02 01:39:13;;;;;;;9.70;7.40;;;;;;;16.76;65.59;101257.63;842363;23;1305;-86
2022/08/02 01:39:37;;;;;;;13.00;7.60;;;;;;;16.77;65.46;101260.28;842115;23;1342;-87
2022/08/02 01:40:03;;;;;;;12.93;7.60;;;;;;;16.77;65.20;101260.28;834993;23;1233;-86
2022/08/02 01:40:33;;;;;;;10.23;7.38;;;;;;;16.76;65.65;101260.25;827576;23;1114;-85
2022/08/02 01:40:57;;;;;;;8.85;7.10;;;;;;;16.77;65.43;101270.81;839093;23;1267;-86
2022/08/02 01:41:22;;;;;;;8.32;7.20;;;;;;;16.77;65.31;101272.59;838988;23;1233;-86
2022/08/02 01:41:46;;;;;;;8.70;7.50;;;;;;;16.75;65.39;101266.41;835465;23;1264;-86
2022/08/02 01:42:08;;;;;;;8.53;7.27;;;;;;;16.72;65.40;101256.72;843029;23;1131;-86
2022/08/02 01:42:30;;;;;;;8.80;7.35;;;;;;;16.70;65.35;101254.06;853028;23;1241;-86
2022/08/02 01:42:54;;;;;;;8.85;7.00;;;;;;;16.71;65.47;101266.38;851660;23;1278;-85
2022/08/02 01:43:18;;;;;;;8.43;6.72;;;;;;;16.70;65.54;101269.88;843224;23;1294;-86
2022/08/02 01:43:42;;;;;;;8.75;6.90;;;;;;;16.72;65.66;101262.00;855932;23;1338;-86
2022/08/02 01:44:04;;;;;;;8.48;6.82;;;;;;;16.69;65.66;101261.97;851319;23;1263;-86
2022/08/02 01:44:29;;;;;;;9.18;6.97;;;;;;;16.68;65.50;101257.56;849256;23;790;-86
2022/08/02 01:44:52;;;;;;;9.60;7.30;;;;;;;16.74;65.39;101269.91;846977;23;1308;-86
2022/08/02 01:45:17;;;;;;;8.82;7.00;;;;;;;16.74;65.55;101269.91;847069;23;1300;-86
2022/08/02 01:45:41;;;;;;;9.25;6.97;;;;;;;16.69;65.23;101262.84;844796;23;962;-86
2022/08/02 01:46:03;;;;;;;9.60;7.05;;;;;;;16.71;65.34;101261.09;854331;23;1377;-86
2022/08/02 01:46:26;;;;;;;8.52;7.20;;;;;;;16.74;65.50;101264.63;851405;23;1422;-86
2022/08/02 01:46:48;;;;;;;9.40;7.43;;;;;;;16.70;65.28;101264.63;839433;23;1400;-86
2022/08/02 01:47:16;;;;;;;9.10;7.45;;;;;;;16.76;65.35;101273.44;859624;23;1350;-87
2022/08/02 01:47:39;;;;;;;7.80;7.00;;;;;;;16.72;65.36;101268.13;855398;23;1267;-86
2022/08/02 01:48:02;;;;;;;8.27;7.40;;;;;;;16.70;65.45;101259.34;851377;23;1182;-86
2022/08/02 01:48:25;;;;;;;7.93;7.13;;;;;;;16.67;65.33;101253.16;852695;23;1107;-87
2022/08/02 01:48:48;;;;;;;7.40;6.70;;;;;;;16.71;65.28;101266.38;851553;23;1392;-86
2022/08/02 01:49:13;;;;;;;7.35;6.65;;;;;;;16.69;65.50;101259.31;851075;23;1292;-86
2022/08/02 01:49:37;;;;;;;8.07;6.90;;;;;;;16.66;65.44;101249.63;850672;23;1223;-86
2022/08/02 01:50:00;;;;;;;8.30;7.00;;;;;;;16.65;65.43;101254.91;849779;23;1279;-87
2022/08/02 01:50:27;;;;;;;7.93;6.97;;;;;;;16.62;65.54;101244.31;851321;23;1350;-87
2022/08/02 01:50:48;;;;;;;7.57;6.88;;;;;;;16.65;65.51;101252.28;855632;23;1230;-87
2022/08/02 01:51:12;;;;;;;7.60;6.80;;;;;;;16.68;65.29;101254.91;855475;23;1419;-87
2022/08/02 01:52:22;;;;;;;7.68;6.88;;;;;;;16.69;65.56;101257.59;846486;23;1296;-86
2022/08/02 01:52:48;;;;;;;7.18;6.47;;;;;;;16.67;65.41;101254.03;855943;23;1253;-85
2022/08/02 01:53:11;;;;;;;7.40;6.70;;;;;;;16.68;65.35;101255.81;852503;23;984;-86